LIPO METAR and TAF | Updated Today

LIPO METAR

Brescia Airport

Observation time: 13 min. ago

LIPO 032220Z AUTO 01007KT //// // NCD 03/M00 Q1015

Need help? Read our tutorial on how to read METARs or read the parsed version below.

Brescia Airport (LIPO) METAR

  • Weather conditions on Fri, 03 Dec 2021 22:20:00 +0000 (13 min. ago):
  • Present conditions: Dry
  • Clouds: Nil cloud detected
  • Visibility:
  • Wind: 10 degrees at 7 knots
  • Temperature: 3 celsius
  • Dew point: 0 celsius
  • Pressure: 1015 millibars
  • Remarks: None


Useful to know...

LIPO TAF

Brescia Airport

TAF LIPO 031700Z 0318/0418 VRB05KT CAVOK TEMPO 0400/0408 1000 BCFG SCT010
Observation time: 5:33 hr. ago
Need help? Read our tutorial on how to read TAFs or read the parsed version below.

Parsed version of TAF for Brescia Airport (LIPO)

  • From 03 December at 18:00 UTC, to day 04 of the month at 18:00 UTC
  • Visibility: Greater than 10 km
  • Wind: Variable at 5
  • Expected to arise temporarily, from 04 December at 00:00 UTC, to day 04 of the month at 08:00 UTC
  • Clouds: Scattered at 305 meters
  • Visibility: 1000 meters
  • Other: Patches of fog